Pagina principală
METAR-TAF:

METAR-TAF

Aeroporturi :

Majuro, Insulele Marshall

Latitudine: 07-04N, longitudine: 171-17E, elevație: 2 m

METAR: lipsă

Ora: 15:56 (03:56 UTC)

Prognoză

Raportul a fost făcut în urmă cu 4 ore și 29 de minute, la 23:27 UTC
Prognoză valabilă de la 02 ora 00 UTC la 02 ora 24 UTC
Vânt 11 kt de la Est/Nord-est
Vizibilitate: 10 km
Nori împrăștiați la o înălțime de 1500 picior
Nori fragmentați la o înălțime de 11000 picior
ploaie slabă
Temporar
de la 02 ora 00 UTC la 02 ora 04 UTC
Vânt 12 kt de la Est/Nord-est cu rafale de până la 22 kt
Vizibilitate: 4.8 km
Nori fragmentați la o înălțime de 1500 picior
Total acoperit la o înălțime de 3000 picior
averse de ploaie puternică

TAF: PKMJ 012327Z 0200/0224 06011KT P6SM -RA SCT015 BKN110 TEMPO 0200/0204 07012G22KT 3SM +SHRA BKN015 OVC030

Observații și prognoze meteo pentru peste 4.000 de aeroporturi (rapoarte METAR și TAF).

Stațiile disponibile sunt reprezentate pe hartă prin puncte galbene și roșii.

Țineți indicatorul mouse-ului pe punctul dorit pentru a vedea denumirea stației.

Apoi, faceți clic pentru a vedea observațiile și prognozele meteorologice.

Pentru a schimba harta: Pentru mărire, faceți clic pe butoanele verzi cu cruce neagră; pentru micșorare, pe butonul verde cu o liniuță; pentru hărți învecinate, pe săgețile verzi.


METAR-TAF: